sensor_id;sensor_type;location;lat;lon;timestamp;P1;durP1;ratioP1;P2;durP2;ratioP2
40459;SDS011;26164;51.138;16.952;2023-04-24T00:00:27;18.48;;;10.70;;
40459;SDS011;26164;51.138;16.952;2023-04-24T00:03:13;16.20;;;11.02;;
40459;SDS011;26164;51.138;16.952;2023-04-24T00:05:39;17.20;;;11.00;;
40459;SDS011;26164;51.138;16.952;2023-04-24T00:08:05;17.88;;;10.93;;
40459;SDS011;26164;51.138;16.952;2023-04-24T00:10:31;18.17;;;11.02;;
40459;SDS011;26164;51.138;16.952;2023-04-24T00:12:57;17.20;;;10.95;;
40459;SDS011;26164;51.138;16.952;2023-04-24T00:15:23;16.98;;;10.75;;
40459;SDS011;26164;51.138;16.952;2023-04-24T00:17:49;14.30;;;9.50;;
40459;SDS011;26164;51.138;16.952;2023-04-24T00:20:15;17.95;;;9.95;;
40459;SDS011;26164;51.138;16.952;2023-04-24T00:22:40;15.75;;;9.90;;
40459;SDS011;26164;51.138;16.952;2023-04-24T00:25:07;15.73;;;9.80;;
40459;SDS011;26164;51.138;16.952;2023-04-24T00:27:32;16.00;;;9.35;;
40459;SDS011;26164;51.138;16.952;2023-04-24T00:29:58;15.25;;;9.52;;
40459;SDS011;26164;51.138;16.952;2023-04-24T00:32:24;15.90;;;9.60;;
40459;SDS011;26164;51.138;16.952;2023-04-24T00:34:50;16.65;;;9.63;;
40459;SDS011;26164;51.138;16.952;2023-04-24T00:37:15;16.38;;;10.23;;
40459;SDS011;26164;51.138;16.952;2023-04-24T00:39:43;16.63;;;10.60;;
40459;SDS011;26164;51.138;16.952;2023-04-24T00:42:11;17.52;;;10.65;;
40459;SDS011;26164;51.138;16.952;2023-04-24T00:44:37;17.02;;;11.20;;
40459;SDS011;26164;51.138;16.952;2023-04-24T00:47:03;22.10;;;11.95;;
40459;SDS011;26164;51.138;16.952;2023-04-24T00:49:29;21.85;;;12.13;;
40459;SDS011;26164;51.138;16.952;2023-04-24T00:51:55;17.25;;;11.45;;
40459;SDS011;26164;51.138;16.952;2023-04-24T00:54:22;18.65;;;11.57;;
40459;SDS011;26164;51.138;16.952;2023-04-24T00:56:49;18.02;;;11.82;;
40459;SDS011;26164;51.138;16.952;2023-04-24T00:59:17;17.70;;;12.15;;
40459;SDS011;26164;51.138;16.952;2023-04-24T01:01:43;21.73;;;12.93;;
40459;SDS011;26164;51.138;16.952;2023-04-24T01:04:11;16.27;;;11.10;;
40459;SDS011;26164;51.138;16.952;2023-04-24T01:06:38;19.17;;;10.65;;
40459;SDS011;26164;51.138;16.952;2023-04-24T01:09:04;19.85;;;11.80;;
40459;SDS011;26164;51.138;16.952;2023-04-24T01:11:30;18.10;;;11.95;;
40459;SDS011;26164;51.138;16.952;2023-04-24T01:13:56;21.65;;;11.52;;
40459;SDS011;26164;51.138;16.952;2023-04-24T01:16:22;21.17;;;12.23;;
40459;SDS011;26164;51.138;16.952;2023-04-24T01:18:48;18.08;;;11.70;;
40459;SDS011;26164;51.138;16.952;2023-04-24T01:21:14;23.75;;;11.93;;
40459;SDS011;26164;51.138;16.952;2023-04-24T01:23:43;19.73;;;12.77;;
40459;SDS011;26164;51.138;16.952;2023-04-24T01:26:09;20.48;;;12.00;;
40459;SDS011;26164;51.138;16.952;2023-04-24T01:28:35;17.88;;;12.05;;
40459;SDS011;26164;51.138;16.952;2023-04-24T01:31:03;22.58;;;12.20;;
40459;SDS011;26164;51.138;16.952;2023-04-24T01:33:30;19.02;;;12.90;;
40459;SDS011;26164;51.138;16.952;2023-04-24T01:35:55;18.40;;;12.13;;
40459;SDS011;26164;51.138;16.952;2023-04-24T01:38:22;19.02;;;12.25;;
40459;SDS011;26164;51.138;16.952;2023-04-24T01:40:48;18.77;;;12.88;;
40459;SDS011;26164;51.138;16.952;2023-04-24T01:43:17;20.08;;;12.35;;
40459;SDS011;26164;51.138;16.952;2023-04-24T01:45:43;20.20;;;12.02;;
40459;SDS011;26164;51.138;16.952;2023-04-24T01:48:09;18.23;;;12.32;;
40459;SDS011;26164;51.138;16.952;2023-04-24T01:50:35;22.25;;;13.52;;
40459;SDS011;26164;51.138;16.952;2023-04-24T01:53:03;19.02;;;12.15;;
40459;SDS011;26164;51.138;16.952;2023-04-24T01:55:28;19.25;;;12.23;;
40459;SDS011;26164;51.138;16.952;2023-04-24T01:57:55;20.60;;;12.73;;
40459;SDS011;26164;51.138;16.952;2023-04-24T02:00:21;21.58;;;13.50;;
40459;SDS011;26164;51.138;16.952;2023-04-24T02:02:47;16.95;;;12.40;;
40459;SDS011;26164;51.138;16.952;2023-04-24T02:05:12;17.58;;;12.30;;
40459;SDS011;26164;51.138;16.952;2023-04-24T02:07:41;22.88;;;15.00;;
40459;SDS011;26164;51.138;16.952;2023-04-24T02:10:08;30.05;;;21.15;;
40459;SDS011;26164;51.138;16.952;2023-04-24T02:12:34;18.80;;;13.65;;
40459;SDS011;26164;51.138;16.952;2023-04-24T02:15:00;20.40;;;13.40;;
40459;SDS011;26164;51.138;16.952;2023-04-24T02:17:26;20.90;;;13.65;;
40459;SDS011;26164;51.138;16.952;2023-04-24T02:19:51;22.40;;;13.18;;
40459;SDS011;26164;51.138;16.952;2023-04-24T02:22:20;19.80;;;13.48;;
40459;SDS011;26164;51.138;16.952;2023-04-24T02:24:46;21.00;;;13.50;;
40459;SDS011;26164;51.138;16.952;2023-04-24T02:27:15;19.63;;;13.50;;
40459;SDS011;26164;51.138;16.952;2023-04-24T02:29:40;19.50;;;12.80;;
40459;SDS011;26164;51.138;16.952;2023-04-24T02:32:06;18.33;;;12.90;;
40459;SDS011;26164;51.138;16.952;2023-04-24T02:34:32;21.95;;;13.43;;
40459;SDS011;26164;51.138;16.952;2023-04-24T02:37:01;20.67;;;12.90;;
40459;SDS011;26164;51.138;16.952;2023-04-24T02:39:26;18.35;;;12.77;;
40459;SDS011;26164;51.138;16.952;2023-04-24T02:41:53;24.17;;;13.63;;
40459;SDS011;26164;51.138;16.952;2023-04-24T02:44:19;22.90;;;12.55;;
40459;SDS011;26164;51.138;16.952;2023-04-24T02:46:45;20.88;;;12.30;;
40459;SDS011;26164;51.138;16.952;2023-04-24T02:49:10;23.08;;;11.60;;
40459;SDS011;26164;51.138;16.952;2023-04-24T02:51:37;16.55;;;11.00;;
40459;SDS011;26164;51.138;16.952;2023-04-24T02:54:07;18.58;;;10.88;;
40459;SDS011;26164;51.138;16.952;2023-04-24T02:56:34;18.83;;;11.20;;
40459;SDS011;26164;51.138;16.952;2023-04-24T02:59:00;18.75;;;12.27;;
40459;SDS011;26164;51.138;16.952;2023-04-24T03:01:26;15.63;;;10.88;;
40459;SDS011;26164;51.138;16.952;2023-04-24T03:03:52;18.80;;;11.88;;
40459;SDS011;26164;51.138;16.952;2023-04-24T03:06:18;18.27;;;10.60;;
40459;SDS011;26164;51.138;16.952;2023-04-24T03:08:43;18.55;;;11.20;;
40459;SDS011;26164;51.138;16.952;2023-04-24T03:11:10;15.70;;;10.70;;
40459;SDS011;26164;51.138;16.952;2023-04-24T03:13:36;17.42;;;10.68;;
40459;SDS011;26164;51.138;16.952;2023-04-24T03:16:02;17.73;;;10.90;;
40459;SDS011;26164;51.138;16.952;2023-04-24T03:18:28;14.77;;;9.70;;
40459;SDS011;26164;51.138;16.952;2023-04-24T03:20:54;15.45;;;9.77;;
40459;SDS011;26164;51.138;16.952;2023-04-24T03:23:20;17.33;;;10.30;;
40459;SDS011;26164;51.138;16.952;2023-04-24T03:25:46;16.33;;;10.15;;
40459;SDS011;26164;51.138;16.952;2023-04-24T03:28:15;17.10;;;9.73;;
40459;SDS011;26164;51.138;16.952;2023-04-24T03:30:48;17.93;;;10.10;;
40459;SDS011;26164;51.138;16.952;2023-04-24T03:33:15;17.60;;;10.65;;
40459;SDS011;26164;51.138;16.952;2023-04-24T03:35:51;18.92;;;10.57;;
40459;SDS011;26164;51.138;16.952;2023-04-24T03:38:16;15.30;;;11.82;;
40459;SDS011;26164;51.138;16.952;2023-04-24T03:41:08;16.52;;;11.95;;
40459;SDS011;26164;51.138;16.952;2023-04-24T03:43:39;19.48;;;12.43;;
40459;SDS011;26164;51.138;16.952;2023-04-24T03:46:05;17.42;;;11.13;;
40459;SDS011;26164;51.138;16.952;2023-04-24T03:48:36;20.10;;;11.85;;
40459;SDS011;26164;51.138;16.952;2023-04-24T03:51:02;17.27;;;11.57;;
40459;SDS011;26164;51.138;16.952;2023-04-24T03:53:30;18.50;;;11.15;;
40459;SDS011;26164;51.138;16.952;2023-04-24T03:55:56;25.08;;;12.80;;
40459;SDS011;26164;51.138;16.952;2023-04-24T03:58:22;19.67;;;12.50;;
40459;SDS011;26164;51.138;16.952;2023-04-24T04:00:49;21.63;;;11.57;;
40459;SDS011;26164;51.138;16.952;2023-04-24T04:03:33;22.27;;;11.63;;
40459;SDS011;26164;51.138;16.952;2023-04-24T04:05:59;19.08;;;12.45;;
40459;SDS011;26164;51.138;16.952;2023-04-24T04:08:25;19.48;;;12.43;;
40459;SDS011;26164;51.138;16.952;2023-04-24T04:10:51;16.45;;;11.82;;
40459;SDS011;26164;51.138;16.952;2023-04-24T04:13:18;19.40;;;12.10;;
40459;SDS011;26164;51.138;16.952;2023-04-24T04:15:44;19.95;;;11.90;;
40459;SDS011;26164;51.138;16.952;2023-04-24T04:18:09;22.67;;;13.20;;
40459;SDS011;26164;51.138;16.952;2023-04-24T04:20:36;21.65;;;14.00;;
40459;SDS011;26164;51.138;16.952;2023-04-24T04:23:01;20.60;;;15.32;;
40459;SDS011;26164;51.138;16.952;2023-04-24T04:25:39;18.80;;;12.82;;
40459;SDS011;26164;51.138;16.952;2023-04-24T04:28:05;18.23;;;12.38;;
40459;SDS011;26164;51.138;16.952;2023-04-24T04:30:31;16.08;;;11.38;;
40459;SDS011;26164;51.138;16.952;2023-04-24T04:33:01;19.83;;;11.43;;
40459;SDS011;26164;51.138;16.952;2023-04-24T04:35:28;16.25;;;11.23;;
40459;SDS011;26164;51.138;16.952;2023-04-24T04:37:54;18.63;;;10.43;;
40459;SDS011;26164;51.138;16.952;2023-04-24T04:40:56;17.35;;;10.38;;
40459;SDS011;26164;51.138;16.952;2023-04-24T04:43:24;15.68;;;9.75;;
40459;SDS011;26164;51.138;16.952;2023-04-24T04:45:52;17.38;;;10.20;;
40459;SDS011;26164;51.138;16.952;2023-04-24T05:10:02;13.32;;;8.93;;
40459;SDS011;26164;51.138;16.952;2023-04-24T05:12:29;16.40;;;8.88;;
40459;SDS011;26164;51.138;16.952;2023-04-24T05:14:55;14.10;;;9.23;;
40459;SDS011;26164;51.138;16.952;2023-04-24T05:17:22;13.30;;;9.15;;
40459;SDS011;26164;51.138;16.952;2023-04-24T05:19:51;15.77;;;8.85;;
40459;SDS011;26164;51.138;16.952;2023-04-24T05:22:17;14.57;;;9.27;;
40459;SDS011;26164;51.138;16.952;2023-04-24T05:24:49;17.65;;;9.13;;
40459;SDS011;26164;51.138;16.952;2023-04-24T05:27:45;15.60;;;9.20;;
40459;SDS011;26164;51.138;16.952;2023-04-24T05:30:16;14.85;;;9.27;;
40459;SDS011;26164;51.138;16.952;2023-04-24T05:32:51;14.77;;;9.60;;
40459;SDS011;26164;51.138;16.952;2023-04-24T05:35:32;17.95;;;9.10;;
40459;SDS011;26164;51.138;16.952;2023-04-24T05:41:04;13.85;;;8.23;;
40459;SDS011;26164;51.138;16.952;2023-04-24T05:43:46;18.70;;;8.27;;
40459;SDS011;26164;51.138;16.952;2023-04-24T05:46:27;15.13;;;8.55;;
40459;SDS011;26164;51.138;16.952;2023-04-24T05:48:56;15.38;;;8.38;;
40459;SDS011;26164;51.138;16.952;2023-04-24T05:51:25;16.83;;;8.38;;
40459;SDS011;26164;51.138;16.952;2023-04-24T05:53:51;13.70;;;8.00;;
40459;SDS011;26164;51.138;16.952;2023-04-24T05:56:19;17.95;;;8.18;;
40459;SDS011;26164;51.138;16.952;2023-04-24T05:58:51;14.85;;;8.77;;
40459;SDS011;26164;51.138;16.952;2023-04-24T06:01:18;16.45;;;7.15;;
40459;SDS011;26164;51.138;16.952;2023-04-24T06:03:51;14.63;;;6.95;;
40459;SDS011;26164;51.138;16.952;2023-04-24T06:06:18;16.73;;;7.50;;
40459;SDS011;26164;51.138;16.952;2023-04-24T06:08:45;11.50;;;6.20;;
40459;SDS011;26164;51.138;16.952;2023-04-24T06:11:11;13.93;;;6.90;;
40459;SDS011;26164;51.138;16.952;2023-04-24T06:13:38;15.10;;;6.70;;
40459;SDS011;26164;51.138;16.952;2023-04-24T06:16:24;11.27;;;6.57;;
40459;SDS011;26164;51.138;16.952;2023-04-24T06:19:00;11.23;;;6.97;;
40459;SDS011;26164;51.138;16.952;2023-04-24T06:21:25;12.73;;;7.13;;
40459;SDS011;26164;51.138;16.952;2023-04-24T06:23:52;12.80;;;6.45;;
40459;SDS011;26164;51.138;16.952;2023-04-24T06:26:17;12.18;;;6.95;;
40459;SDS011;26164;51.138;16.952;2023-04-24T06:28:44;14.30;;;7.32;;
40459;SDS011;26164;51.138;16.952;2023-04-24T06:31:09;13.40;;;6.63;;
40459;SDS011;26164;51.138;16.952;2023-04-24T06:33:38;13.45;;;6.15;;
40459;SDS011;26164;51.138;16.952;2023-04-24T06:36:04;12.25;;;5.90;;
40459;SDS011;26164;51.138;16.952;2023-04-24T06:38:33;16.83;;;5.68;;
40459;SDS011;26164;51.138;16.952;2023-04-24T06:41:00;15.43;;;6.40;;
40459;SDS011;26164;51.138;16.952;2023-04-24T06:43:26;13.32;;;6.60;;
40459;SDS011;26164;51.138;16.952;2023-04-24T06:45:52;10.90;;;5.60;;
40459;SDS011;26164;51.138;16.952;2023-04-24T06:48:18;13.10;;;5.75;;
40459;SDS011;26164;51.138;16.952;2023-04-24T06:50:43;17.63;;;6.03;;
40459;SDS011;26164;51.138;16.952;2023-04-24T06:53:11;15.23;;;6.13;;
40459;SDS011;26164;51.138;16.952;2023-04-24T06:55:43;15.85;;;5.30;;
40459;SDS011;26164;51.138;16.952;2023-04-24T06:58:12;13.55;;;5.32;;
40459;SDS011;26164;51.138;16.952;2023-04-24T07:00:37;10.00;;;5.40;;
40459;SDS011;26164;51.138;16.952;2023-04-24T07:03:05;9.70;;;5.40;;
40459;SDS011;26164;51.138;16.952;2023-04-24T07:45:10;8.25;;;4.60;;
40459;SDS011;26164;51.138;16.952;2023-04-24T08:51:00;7.25;;;2.90;;
40459;SDS011;26164;51.138;16.952;2023-04-24T08:53:28;9.48;;;3.40;;
40459;SDS011;26164;51.138;16.952;2023-04-24T08:55:55;16.35;;;4.15;;
40459;SDS011;26164;51.138;16.952;2023-04-24T08:58:25;18.90;;;4.35;;
40459;SDS011;26164;51.138;16.952;2023-04-24T09:00:56;12.13;;;3.45;;
40459;SDS011;26164;51.138;16.952;2023-04-24T09:03:25;7.00;;;3.30;;
40459;SDS011;26164;51.138;16.952;2023-04-24T09:05:55;10.30;;;3.55;;
40459;SDS011;26164;51.138;16.952;2023-04-24T09:08:22;12.85;;;4.00;;
40459;SDS011;26164;51.138;16.952;2023-04-24T09:10:52;6.75;;;3.90;;
40459;SDS011;26164;51.138;16.952;2023-04-24T09:13:25;9.80;;;4.10;;
40459;SDS011;26164;51.138;16.952;2023-04-24T09:16:03;7.53;;;4.25;;
40459;SDS011;26164;51.138;16.952;2023-04-24T09:18:45;9.13;;;4.35;;
40459;SDS011;26164;51.138;16.952;2023-04-24T09:21:11;6.32;;;3.95;;
40459;SDS011;26164;51.138;16.952;2023-04-24T09:23:38;8.85;;;4.30;;
40459;SDS011;26164;51.138;16.952;2023-04-24T09:26:04;7.32;;;5.13;;
40459;SDS011;26164;51.138;16.952;2023-04-24T09:28:38;8.88;;;5.20;;
40459;SDS011;26164;51.138;16.952;2023-04-24T09:31:06;6.75;;;4.13;;
40459;SDS011;26164;51.138;16.952;2023-04-24T09:33:35;6.10;;;4.25;;
40459;SDS011;26164;51.138;16.952;2023-04-24T09:36:01;7.00;;;4.20;;
40459;SDS011;26164;51.138;16.952;2023-04-24T09:38:32;8.65;;;4.65;;
40459;SDS011;26164;51.138;16.952;2023-04-24T09:41:05;4.90;;;3.40;;
40459;SDS011;26164;51.138;16.952;2023-04-24T09:43:32;6.18;;;3.65;;
40459;SDS011;26164;51.138;16.952;2023-04-24T09:46:04;5.63;;;2.88;;
40459;SDS011;26164;51.138;16.952;2023-04-24T09:48:35;5.57;;;3.17;;
40459;SDS011;26164;51.138;16.952;2023-04-24T09:51:02;8.20;;;3.03;;
40459;SDS011;26164;51.138;16.952;2023-04-24T09:53:30;12.18;;;3.25;;
40459;SDS011;26164;51.138;16.952;2023-04-24T09:56:02;6.82;;;3.05;;
40459;SDS011;26164;51.138;16.952;2023-04-24T09:58:28;8.48;;;3.30;;
40459;SDS011;26164;51.138;16.952;2023-04-24T10:00:57;8.15;;;2.78;;
40459;SDS011;26164;51.138;16.952;2023-04-24T10:03:33;6.93;;;2.78;;
40459;SDS011;26164;51.138;16.952;2023-04-24T10:06:02;6.03;;;3.30;;
40459;SDS011;26164;51.138;16.952;2023-04-24T10:08:44;7.07;;;3.55;;
40459;SDS011;26164;51.138;16.952;2023-04-24T10:11:12;6.55;;;3.72;;
40459;SDS011;26164;51.138;16.952;2023-04-24T10:13:41;8.02;;;4.30;;
40459;SDS011;26164;51.138;16.952;2023-04-24T10:16:08;7.10;;;4.50;;
40459;SDS011;26164;51.138;16.952;2023-04-24T10:18:35;7.00;;;4.13;;
40459;SDS011;26164;51.138;16.952;2023-04-24T10:21:02;7.68;;;3.50;;
40459;SDS011;26164;51.138;16.952;2023-04-24T10:23:29;8.80;;;3.95;;
40459;SDS011;26164;51.138;16.952;2023-04-24T10:25:58;8.52;;;4.93;;
40459;SDS011;26164;51.138;16.952;2023-04-24T10:28:26;9.13;;;4.63;;
40459;SDS011;26164;51.138;16.952;2023-04-24T10:30:54;10.88;;;4.82;;
40459;SDS011;26164;51.138;16.952;2023-04-24T10:33:35;7.82;;;5.10;;
40459;SDS011;26164;51.138;16.952;2023-04-24T10:36:11;10.05;;;4.70;;
40459;SDS011;26164;51.138;16.952;2023-04-24T10:38:38;15.60;;;8.18;;
40459;SDS011;26164;51.138;16.952;2023-04-24T10:41:10;11.60;;;7.07;;
40459;SDS011;26164;51.138;16.952;2023-04-24T10:43:43;11.50;;;5.85;;
40459;SDS011;26164;51.138;16.952;2023-04-24T10:46:19;13.95;;;6.50;;
40459;SDS011;26164;51.138;16.952;2023-04-24T10:48:54;21.98;;;5.85;;
40459;SDS011;26164;51.138;16.952;2023-04-24T10:51:48;7.50;;;4.65;;
40459;SDS011;26164;51.138;16.952;2023-04-24T10:54:29;9.73;;;4.45;;
40459;SDS011;26164;51.138;16.952;2023-04-24T11:02:15;8.25;;;4.10;;
40459;SDS011;26164;51.138;16.952;2023-04-24T11:04:44;9.15;;;4.40;;
40459;SDS011;26164;51.138;16.952;2023-04-24T11:07:12;13.32;;;4.78;;
40459;SDS011;26164;51.138;16.952;2023-04-24T11:09:38;11.18;;;3.97;;
40459;SDS011;26164;51.138;16.952;2023-04-24T11:12:10;10.23;;;4.10;;
40459;SDS011;26164;51.138;16.952;2023-04-24T11:17:26;9.35;;;3.80;;
40459;SDS011;26164;51.138;16.952;2023-04-24T11:19:52;3.75;;;2.80;;
40459;SDS011;26164;51.138;16.952;2023-04-24T11:22:18;4.93;;;3.28;;
40459;SDS011;26164;51.138;16.952;2023-04-24T11:27:20;6.35;;;3.88;;
40459;SDS011;26164;51.138;16.952;2023-04-24T11:34:51;6.97;;;4.65;;
40459;SDS011;26164;51.138;16.952;2023-04-24T11:37:17;7.82;;;4.60;;
40459;SDS011;26164;51.138;16.952;2023-04-24T11:39:46;5.60;;;3.80;;
40459;SDS011;26164;51.138;16.952;2023-04-24T11:42:14;5.68;;;3.65;;
40459;SDS011;26164;51.138;16.952;2023-04-24T11:44:43;5.13;;;3.47;;
40459;SDS011;26164;51.138;16.952;2023-04-24T11:47:09;5.93;;;3.20;;
40459;SDS011;26164;51.138;16.952;2023-04-24T11:49:37;4.70;;;3.05;;
40459;SDS011;26164;51.138;16.952;2023-04-24T11:52:04;5.28;;;2.90;;
40459;SDS011;26164;51.138;16.952;2023-04-24T11:54:30;5.95;;;3.03;;
40459;SDS011;26164;51.138;16.952;2023-04-24T11:56:57;7.57;;;3.08;;
40459;SDS011;26164;51.138;16.952;2023-04-24T11:59:23;6.60;;;3.13;;
40459;SDS011;26164;51.138;16.952;2023-04-24T12:01:51;5.10;;;3.00;;
40459;SDS011;26164;51.138;16.952;2023-04-24T12:04:20;3.90;;;2.65;;
40459;SDS011;26164;51.138;16.952;2023-04-24T12:07:02;10.50;;;3.05;;
40459;SDS011;26164;51.138;16.952;2023-04-24T12:09:28;4.50;;;2.80;;
40459;SDS011;26164;51.138;16.952;2023-04-24T12:11:56;7.65;;;2.75;;
40459;SDS011;26164;51.138;16.952;2023-04-24T12:14:25;6.03;;;2.78;;
40459;SDS011;26164;51.138;16.952;2023-04-24T12:16:51;6.47;;;3.40;;
40459;SDS011;26164;51.138;16.952;2023-04-24T12:19:18;6.35;;;3.17;;
40459;SDS011;26164;51.138;16.952;2023-04-24T12:21:57;7.38;;;3.60;;
40459;SDS011;26164;51.138;16.952;2023-04-24T12:24:23;5.03;;;3.13;;
40459;SDS011;26164;51.138;16.952;2023-04-24T12:26:49;8.95;;;3.97;;
40459;SDS011;26164;51.138;16.952;2023-04-24T12:29:20;9.30;;;3.35;;
40459;SDS011;26164;51.138;16.952;2023-04-24T12:31:46;6.57;;;3.70;;
40459;SDS011;26164;51.138;16.952;2023-04-24T12:34:21;5.85;;;3.25;;
40459;SDS011;26164;51.138;16.952;2023-04-24T12:36:47;5.90;;;3.90;;
40459;SDS011;26164;51.138;16.952;2023-04-24T12:39:19;5.57;;;3.45;;
40459;SDS011;26164;51.138;16.952;2023-04-24T12:41:55;5.53;;;3.88;;
40459;SDS011;26164;51.138;16.952;2023-04-24T12:44:32;9.90;;;4.57;;
40459;SDS011;26164;51.138;16.952;2023-04-24T12:47:00;11.93;;;4.63;;
40459;SDS011;26164;51.138;16.952;2023-04-24T12:49:27;9.88;;;4.28;;
40459;SDS011;26164;51.138;16.952;2023-04-24T12:51:53;7.32;;;4.18;;
40459;SDS011;26164;51.138;16.952;2023-04-24T12:54:19;5.43;;;3.20;;
40459;SDS011;26164;51.138;16.952;2023-04-24T12:56:45;5.15;;;3.28;;
40459;SDS011;26164;51.138;16.952;2023-04-24T12:59:11;8.60;;;3.08;;
40459;SDS011;26164;51.138;16.952;2023-04-24T13:01:37;2.40;;;1.25;;
40459;SDS011;26164;51.138;16.952;2023-04-24T13:04:04;1.90;;;0.90;;
40459;SDS011;26164;51.138;16.952;2023-04-24T13:06:31;3.45;;;1.35;;
40459;SDS011;26164;51.138;16.952;2023-04-24T13:08:57;3.70;;;1.10;;
40459;SDS011;26164;51.138;16.952;2023-04-24T13:11:25;3.90;;;1.80;;
40459;SDS011;26164;51.138;16.952;2023-04-24T13:13:50;2.33;;;1.17;;
40459;SDS011;26164;51.138;16.952;2023-04-24T13:16:17;8.30;;;1.80;;
40459;SDS011;26164;51.138;16.952;2023-04-24T13:18:44;7.18;;;1.85;;
40459;SDS011;26164;51.138;16.952;2023-04-24T13:21:11;5.75;;;1.63;;
40459;SDS011;26164;51.138;16.952;2023-04-24T13:23:36;3.15;;;1.77;;
40459;SDS011;26164;51.138;16.952;2023-04-24T13:26:05;5.07;;;1.90;;
40459;SDS011;26164;51.138;16.952;2023-04-24T13:28:30;5.15;;;1.92;;
40459;SDS011;26164;51.138;16.952;2023-04-24T13:30:59;4.68;;;1.70;;
40459;SDS011;26164;51.138;16.952;2023-04-24T13:33:25;2.55;;;1.20;;
40459;SDS011;26164;51.138;16.952;2023-04-24T13:35:51;4.75;;;1.77;;
40459;SDS011;26164;51.138;16.952;2023-04-24T13:38:18;5.40;;;1.35;;
40459;SDS011;26164;51.138;16.952;2023-04-24T13:40:49;2.85;;;0.90;;
40459;SDS011;26164;51.138;16.952;2023-04-24T13:43:15;2.58;;;0.98;;
40459;SDS011;26164;51.138;16.952;2023-04-24T13:45:41;4.43;;;0.98;;
40459;SDS011;26164;51.138;16.952;2023-04-24T13:48:07;2.33;;;0.80;;
40459;SDS011;26164;51.138;16.952;2023-04-24T13:50:35;2.60;;;0.90;;
40459;SDS011;26164;51.138;16.952;2023-04-24T13:53:01;2.50;;;0.90;;
40459;SDS011;26164;51.138;16.952;2023-04-24T13:55:30;2.83;;;1.48;;
40459;SDS011;26164;51.138;16.952;2023-04-24T13:57:56;3.97;;;1.35;;
40459;SDS011;26164;51.138;16.952;2023-04-24T14:00:22;8.50;;;1.30;;
40459;SDS011;26164;51.138;16.952;2023-04-24T14:03:02;5.97;;;1.70;;
40459;SDS011;26164;51.138;16.952;2023-04-24T14:05:28;5.90;;;1.88;;
40459;SDS011;26164;51.138;16.952;2023-04-24T14:08:05;7.18;;;1.92;;
40459;SDS011;26164;51.138;16.952;2023-04-24T14:10:32;11.35;;;2.10;;
40459;SDS011;26164;51.138;16.952;2023-04-24T14:12:57;9.00;;;1.90;;
40459;SDS011;26164;51.138;16.952;2023-04-24T14:15:26;5.63;;;1.92;;
40459;SDS011;26164;51.138;16.952;2023-04-24T14:17:51;10.50;;;2.55;;
40459;SDS011;26164;51.138;16.952;2023-04-24T14:20:17;8.25;;;2.50;;
40459;SDS011;26164;51.138;16.952;2023-04-24T14:22:43;10.18;;;3.05;;
40459;SDS011;26164;51.138;16.952;2023-04-24T14:25:09;11.77;;;3.55;;
40459;SDS011;26164;51.138;16.952;2023-04-24T14:27:35;9.07;;;2.60;;
40459;SDS011;26164;51.138;16.952;2023-04-24T14:30:06;7.80;;;1.90;;
40459;SDS011;26164;51.138;16.952;2023-04-24T14:32:32;5.95;;;2.35;;
40459;SDS011;26164;51.138;16.952;2023-04-24T14:35:04;12.95;;;3.45;;
40459;SDS011;26164;51.138;16.952;2023-04-24T14:37:31;13.57;;;4.00;;
40459;SDS011;26164;51.138;16.952;2023-04-24T14:39:57;9.20;;;3.65;;
40459;SDS011;26164;51.138;16.952;2023-04-24T14:42:22;6.70;;;2.97;;
40459;SDS011;26164;51.138;16.952;2023-04-24T14:44:48;6.78;;;3.60;;
40459;SDS011;26164;51.138;16.952;2023-04-24T14:47:14;6.97;;;2.70;;
40459;SDS011;26164;51.138;16.952;2023-04-24T14:49:41;7.43;;;2.95;;
40459;SDS011;26164;51.138;16.952;2023-04-24T14:52:09;9.38;;;3.58;;
40459;SDS011;26164;51.138;16.952;2023-04-24T14:54:35;11.25;;;3.10;;
40459;SDS011;26164;51.138;16.952;2023-04-24T14:57:00;10.18;;;3.05;;
40459;SDS011;26164;51.138;16.952;2023-04-24T14:59:27;8.20;;;2.90;;
40459;SDS011;26164;51.138;16.952;2023-04-24T15:01:53;12.63;;;3.33;;
40459;SDS011;26164;51.138;16.952;2023-04-24T15:04:26;6.90;;;2.95;;
40459;SDS011;26164;51.138;16.952;2023-04-24T15:06:52;10.77;;;3.50;;
40459;SDS011;26164;51.138;16.952;2023-04-24T15:09:22;12.20;;;3.40;;
40459;SDS011;26164;51.138;16.952;2023-04-24T15:11:49;7.63;;;2.80;;
40459;SDS011;26164;51.138;16.952;2023-04-24T15:14:16;6.30;;;2.58;;
40459;SDS011;26164;51.138;16.952;2023-04-24T15:16:41;6.18;;;2.40;;
40459;SDS011;26164;51.138;16.952;2023-04-24T15:19:08;5.05;;;2.28;;
40459;SDS011;26164;51.138;16.952;2023-04-24T15:21:35;7.47;;;3.70;;
40459;SDS011;26164;51.138;16.952;2023-04-24T15:24:01;7.28;;;2.72;;
40459;SDS011;26164;51.138;16.952;2023-04-24T15:26:27;6.03;;;2.28;;
40459;SDS011;26164;51.138;16.952;2023-04-24T15:28:53;5.05;;;2.08;;
40459;SDS011;26164;51.138;16.952;2023-04-24T15:31:18;3.67;;;1.88;;
40459;SDS011;26164;51.138;16.952;2023-04-24T15:33:45;2.72;;;1.02;;
40459;SDS011;26164;51.138;16.952;2023-04-24T15:36:10;4.55;;;1.33;;
40459;SDS011;26164;51.138;16.952;2023-04-24T15:38:37;3.50;;;1.02;;
40459;SDS011;26164;51.138;16.952;2023-04-24T15:41:02;2.53;;;1.30;;
40459;SDS011;26164;51.138;16.952;2023-04-24T15:43:29;3.53;;;1.40;;
40459;SDS011;26164;51.138;16.952;2023-04-24T15:45:56;3.95;;;1.35;;
40459;SDS011;26164;51.138;16.952;2023-04-24T15:48:22;3.05;;;0.80;;
40459;SDS011;26164;51.138;16.952;2023-04-24T15:50:48;1.98;;;0.90;;
40459;SDS011;26164;51.138;16.952;2023-04-24T15:53:14;2.50;;;0.80;;
40459;SDS011;26164;51.138;16.952;2023-04-24T15:55:52;5.15;;;1.42;;
40459;SDS011;26164;51.138;16.952;2023-04-24T15:58:18;4.60;;;1.70;;
40459;SDS011;26164;51.138;16.952;2023-04-24T16:00:44;4.07;;;1.55;;
40459;SDS011;26164;51.138;16.952;2023-04-24T16:03:12;5.57;;;2.00;;
40459;SDS011;26164;51.138;16.952;2023-04-24T16:05:38;3.95;;;1.90;;
40459;SDS011;26164;51.138;16.952;2023-04-24T16:08:04;5.15;;;1.98;;
40459;SDS011;26164;51.138;16.952;2023-04-24T16:10:30;6.63;;;2.50;;
40459;SDS011;26164;51.138;16.952;2023-04-24T16:12:57;4.45;;;2.25;;
40459;SDS011;26164;51.138;16.952;2023-04-24T16:15:25;8.80;;;2.42;;
40459;SDS011;26164;51.138;16.952;2023-04-24T16:17:51;6.40;;;2.20;;
40459;SDS011;26164;51.138;16.952;2023-04-24T16:20:19;6.38;;;2.78;;
40459;SDS011;26164;51.138;16.952;2023-04-24T16:22:47;4.25;;;2.40;;
40459;SDS011;26164;51.138;16.952;2023-04-24T16:25:13;11.07;;;2.97;;
40459;SDS011;26164;51.138;16.952;2023-04-24T16:27:39;4.95;;;2.67;;
40459;SDS011;26164;51.138;16.952;2023-04-24T16:30:05;5.18;;;2.50;;
40459;SDS011;26164;51.138;16.952;2023-04-24T16:32:31;6.60;;;3.22;;
40459;SDS011;26164;51.138;16.952;2023-04-24T16:35:00;4.97;;;2.78;;
40459;SDS011;26164;51.138;16.952;2023-04-24T16:37:27;8.60;;;2.85;;
40459;SDS011;26164;51.138;16.952;2023-04-24T16:39:53;6.60;;;3.60;;
40459;SDS011;26164;51.138;16.952;2023-04-24T16:42:19;11.27;;;3.90;;
40459;SDS011;26164;51.138;16.952;2023-04-24T16:44:45;6.88;;;3.83;;
40459;SDS011;26164;51.138;16.952;2023-04-24T16:47:12;8.38;;;4.13;;
40459;SDS011;26164;51.138;16.952;2023-04-24T16:49:39;7.75;;;3.53;;
40459;SDS011;26164;51.138;16.952;2023-04-24T16:52:06;8.88;;;4.00;;